sensor_id;sensor_type;location;lat;lon;timestamp;P1;durP1;ratioP1;P2;durP2;ratioP2
9160;SDS011;4615;51.340;8.288;2022-08-14T00:01:33;6.57;;;6.00;;
9160;SDS011;4615;51.340;8.288;2022-08-14T00:04:01;8.07;;;7.37;;
9160;SDS011;4615;51.340;8.288;2022-08-14T00:06:27;7.87;;;7.17;;
9160;SDS011;4615;51.340;8.288;2022-08-14T00:08:54;7.50;;;6.90;;
9160;SDS011;4615;51.340;8.288;2022-08-14T00:11:20;7.20;;;6.60;;
9160;SDS011;4615;51.340;8.288;2022-08-14T00:13:47;9.47;;;7.70;;
9160;SDS011;4615;51.340;8.288;2022-08-14T00:16:13;7.67;;;6.90;;
9160;SDS011;4615;51.340;8.288;2022-08-14T00:18:40;7.70;;;7.00;;
9160;SDS011;4615;51.340;8.288;2022-08-14T00:21:08;7.87;;;7.17;;
9160;SDS011;4615;51.340;8.288;2022-08-14T00:23:34;7.43;;;6.77;;
9160;SDS011;4615;51.340;8.288;2022-08-14T00:26:01;7.67;;;6.80;;
9160;SDS011;4615;51.340;8.288;2022-08-14T00:28:27;7.90;;;7.20;;
9160;SDS011;4615;51.340;8.288;2022-08-14T00:30:54;8.47;;;7.63;;
9160;SDS011;4615;51.340;8.288;2022-08-14T00:33:22;8.37;;;7.47;;
9160;SDS011;4615;51.340;8.288;2022-08-14T00:35:49;8.13;;;7.43;;
9160;SDS011;4615;51.340;8.288;2022-08-14T00:38:17;7.60;;;7.00;;
9160;SDS011;4615;51.340;8.288;2022-08-14T00:40:44;7.93;;;7.33;;
9160;SDS011;4615;51.340;8.288;2022-08-14T00:43:10;7.97;;;7.27;;
9160;SDS011;4615;51.340;8.288;2022-08-14T00:45:37;7.73;;;7.13;;
9160;SDS011;4615;51.340;8.288;2022-08-14T00:48:03;7.23;;;6.70;;
9160;SDS011;4615;51.340;8.288;2022-08-14T00:50:30;8.00;;;7.37;;
9160;SDS011;4615;51.340;8.288;2022-08-14T00:52:57;9.97;;;7.27;;
9160;SDS011;4615;51.340;8.288;2022-08-14T00:55:26;8.30;;;7.60;;
9160;SDS011;4615;51.340;8.288;2022-08-14T00:57:53;7.80;;;7.00;;
9160;SDS011;4615;51.340;8.288;2022-08-14T01:00:34;8.00;;;7.30;;
9160;SDS011;4615;51.340;8.288;2022-08-14T01:03:00;7.83;;;6.93;;
9160;SDS011;4615;51.340;8.288;2022-08-14T01:05:28;9.23;;;7.73;;
9160;SDS011;4615;51.340;8.288;2022-08-14T01:07:54;8.97;;;8.13;;
9160;SDS011;4615;51.340;8.288;2022-08-14T01:10:22;9.10;;;8.30;;
9160;SDS011;4615;51.340;8.288;2022-08-14T01:13:11;9.73;;;7.33;;
9160;SDS011;4615;51.340;8.288;2022-08-14T01:15:38;8.10;;;7.30;;
9160;SDS011;4615;51.340;8.288;2022-08-14T01:18:04;7.90;;;7.20;;
9160;SDS011;4615;51.340;8.288;2022-08-14T01:20:48;7.83;;;7.13;;
9160;SDS011;4615;51.340;8.288;2022-08-14T01:23:36;8.17;;;7.47;;
9160;SDS011;4615;51.340;8.288;2022-08-14T01:26:03;8.60;;;7.83;;
9160;SDS011;4615;51.340;8.288;2022-08-14T01:28:30;8.87;;;8.07;;
9160;SDS011;4615;51.340;8.288;2022-08-14T01:31:00;8.20;;;7.50;;
9160;SDS011;4615;51.340;8.288;2022-08-14T01:33:30;8.83;;;8.03;;
9160;SDS011;4615;51.340;8.288;2022-08-14T01:35:58;8.00;;;7.30;;
9160;SDS011;4615;51.340;8.288;2022-08-14T01:38:25;9.10;;;7.87;;
9160;SDS011;4615;51.340;8.288;2022-08-14T01:40:57;8.97;;;7.67;;
9160;SDS011;4615;51.340;8.288;2022-08-14T01:43:23;8.83;;;8.03;;
9160;SDS011;4615;51.340;8.288;2022-08-14T01:45:55;8.30;;;7.60;;
9160;SDS011;4615;51.340;8.288;2022-08-14T01:48:22;8.97;;;8.20;;
9160;SDS011;4615;51.340;8.288;2022-08-14T01:50:48;8.40;;;7.60;;
9160;SDS011;4615;51.340;8.288;2022-08-14T01:53:15;8.53;;;7.73;;
9160;SDS011;4615;51.340;8.288;2022-08-14T01:55:42;8.63;;;7.80;;
9160;SDS011;4615;51.340;8.288;2022-08-14T01:58:10;9.37;;;8.13;;
9160;SDS011;4615;51.340;8.288;2022-08-14T02:00:38;8.77;;;7.90;;
9160;SDS011;4615;51.340;8.288;2022-08-14T02:03:04;9.57;;;8.73;;
9160;SDS011;4615;51.340;8.288;2022-08-14T02:05:31;9.23;;;8.33;;
9160;SDS011;4615;51.340;8.288;2022-08-14T02:07:58;8.77;;;7.97;;
9160;SDS011;4615;51.340;8.288;2022-08-14T02:10:25;9.00;;;8.20;;
9160;SDS011;4615;51.340;8.288;2022-08-14T02:12:53;9.30;;;8.30;;
9160;SDS011;4615;51.340;8.288;2022-08-14T02:15:21;8.53;;;7.83;;
9160;SDS011;4615;51.340;8.288;2022-08-14T02:17:48;8.13;;;7.53;;
9160;SDS011;4615;51.340;8.288;2022-08-14T02:20:16;8.77;;;7.97;;
9160;SDS011;4615;51.340;8.288;2022-08-14T02:22:44;8.83;;;7.67;;
9160;SDS011;4615;51.340;8.288;2022-08-14T02:25:11;10.00;;;8.20;;
9160;SDS011;4615;51.340;8.288;2022-08-14T02:27:37;8.73;;;8.03;;
9160;SDS011;4615;51.340;8.288;2022-08-14T02:30:06;8.43;;;7.73;;
9160;SDS011;4615;51.340;8.288;2022-08-14T02:32:34;8.93;;;7.73;;
9160;SDS011;4615;51.340;8.288;2022-08-14T02:35:02;9.53;;;8.67;;
9160;SDS011;4615;51.340;8.288;2022-08-14T02:37:31;9.83;;;8.43;;
9160;SDS011;4615;51.340;8.288;2022-08-14T02:39:57;9.97;;;8.97;;
9160;SDS011;4615;51.340;8.288;2022-08-14T02:42:24;8.83;;;8.13;;
9160;SDS011;4615;51.340;8.288;2022-08-14T02:44:50;8.43;;;7.70;;
9160;SDS011;4615;51.340;8.288;2022-08-14T02:47:16;8.30;;;7.50;;
9160;SDS011;4615;51.340;8.288;2022-08-14T02:49:45;9.57;;;8.60;;
9160;SDS011;4615;51.340;8.288;2022-08-14T02:52:11;9.37;;;8.57;;
9160;SDS011;4615;51.340;8.288;2022-08-14T02:54:38;9.47;;;8.60;;
9160;SDS011;4615;51.340;8.288;2022-08-14T02:57:04;8.73;;;7.87;;
9160;SDS011;4615;51.340;8.288;2022-08-14T02:59:31;9.73;;;8.87;;
9160;SDS011;4615;51.340;8.288;2022-08-14T03:01:58;9.47;;;8.70;;
9160;SDS011;4615;51.340;8.288;2022-08-14T03:04:25;9.40;;;8.57;;
9160;SDS011;4615;51.340;8.288;2022-08-14T03:06:53;9.80;;;9.00;;
9160;SDS011;4615;51.340;8.288;2022-08-14T03:09:20;9.30;;;8.50;;
9160;SDS011;4615;51.340;8.288;2022-08-14T03:11:46;9.70;;;8.83;;
9160;SDS011;4615;51.340;8.288;2022-08-14T03:14:13;9.17;;;8.37;;
9160;SDS011;4615;51.340;8.288;2022-08-14T03:16:40;9.97;;;9.07;;
9160;SDS011;4615;51.340;8.288;2022-08-14T03:19:06;9.80;;;8.80;;
9160;SDS011;4615;51.340;8.288;2022-08-14T03:21:33;8.90;;;8.17;;
9160;SDS011;4615;51.340;8.288;2022-08-14T03:24:02;9.73;;;8.87;;
9160;SDS011;4615;51.340;8.288;2022-08-14T03:26:36;9.33;;;8.53;;
9160;SDS011;4615;51.340;8.288;2022-08-14T03:29:04;9.53;;;8.73;;
9160;SDS011;4615;51.340;8.288;2022-08-14T03:31:30;9.90;;;9.00;;
9160;SDS011;4615;51.340;8.288;2022-08-14T03:33:57;9.73;;;8.90;;
9160;SDS011;4615;51.340;8.288;2022-08-14T03:36:23;10.23;;;9.40;;
9160;SDS011;4615;51.340;8.288;2022-08-14T03:38:50;9.27;;;8.37;;
9160;SDS011;4615;51.340;8.288;2022-08-14T03:41:20;9.90;;;9.10;;
9160;SDS011;4615;51.340;8.288;2022-08-14T03:43:48;10.50;;;9.40;;
9160;SDS011;4615;51.340;8.288;2022-08-14T03:46:14;10.03;;;8.93;;
9160;SDS011;4615;51.340;8.288;2022-08-14T03:48:42;9.47;;;8.67;;
9160;SDS011;4615;51.340;8.288;2022-08-14T03:51:09;8.87;;;8.00;;
9160;SDS011;4615;51.340;8.288;2022-08-14T03:53:36;10.17;;;9.27;;
9160;SDS011;4615;51.340;8.288;2022-08-14T03:56:03;8.83;;;8.10;;
9160;SDS011;4615;51.340;8.288;2022-08-14T03:58:31;10.10;;;9.07;;
9160;SDS011;4615;51.340;8.288;2022-08-14T04:00:57;9.30;;;8.57;;
9160;SDS011;4615;51.340;8.288;2022-08-14T04:03:24;9.50;;;8.70;;
9160;SDS011;4615;51.340;8.288;2022-08-14T04:05:51;9.23;;;8.50;;
9160;SDS011;4615;51.340;8.288;2022-08-14T04:08:19;10.03;;;9.13;;
9160;SDS011;4615;51.340;8.288;2022-08-14T04:10:46;10.10;;;9.10;;
9160;SDS011;4615;51.340;8.288;2022-08-14T04:13:13;10.57;;;9.60;;
9160;SDS011;4615;51.340;8.288;2022-08-14T04:15:43;9.90;;;8.93;;
9160;SDS011;4615;51.340;8.288;2022-08-14T04:18:10;10.53;;;9.63;;
9160;SDS011;4615;51.340;8.288;2022-08-14T04:20:37;10.20;;;9.30;;
9160;SDS011;4615;51.340;8.288;2022-08-14T04:23:04;11.77;;;10.67;;
9160;SDS011;4615;51.340;8.288;2022-08-14T04:25:31;10.93;;;10.03;;
9160;SDS011;4615;51.340;8.288;2022-08-14T04:28:00;10.93;;;10.03;;
9160;SDS011;4615;51.340;8.288;2022-08-14T04:30:27;10.87;;;9.90;;
9160;SDS011;4615;51.340;8.288;2022-08-14T04:32:55;11.23;;;10.33;;
9160;SDS011;4615;51.340;8.288;2022-08-14T04:35:22;11.20;;;10.10;;
9160;SDS011;4615;51.340;8.288;2022-08-14T04:37:48;10.67;;;9.77;;
9160;SDS011;4615;51.340;8.288;2022-08-14T04:40:31;10.40;;;9.50;;
9160;SDS011;4615;51.340;8.288;2022-08-14T04:43:15;12.03;;;9.60;;
9160;SDS011;4615;51.340;8.288;2022-08-14T04:45:59;11.20;;;10.10;;
9160;SDS011;4615;51.340;8.288;2022-08-14T04:48:28;10.60;;;9.60;;
9160;SDS011;4615;51.340;8.288;2022-08-14T04:50:54;9.87;;;9.07;;
9160;SDS011;4615;51.340;8.288;2022-08-14T04:53:22;10.57;;;9.67;;
9160;SDS011;4615;51.340;8.288;2022-08-14T04:55:49;9.70;;;8.93;;
9160;SDS011;4615;51.340;8.288;2022-08-14T04:58:16;11.07;;;10.17;;
9160;SDS011;4615;51.340;8.288;2022-08-14T05:00:42;10.63;;;9.63;;
9160;SDS011;4615;51.340;8.288;2022-08-14T05:03:09;11.40;;;10.30;;
9160;SDS011;4615;51.340;8.288;2022-08-14T05:05:38;10.60;;;9.70;;
9160;SDS011;4615;51.340;8.288;2022-08-14T05:08:05;10.70;;;9.67;;
9160;SDS011;4615;51.340;8.288;2022-08-14T05:10:36;10.93;;;9.83;;
9160;SDS011;4615;51.340;8.288;2022-08-14T05:13:02;10.47;;;9.60;;
9160;SDS011;4615;51.340;8.288;2022-08-14T05:15:31;10.60;;;9.70;;
9160;SDS011;4615;51.340;8.288;2022-08-14T05:18:00;12.77;;;11.60;;
9160;SDS011;4615;51.340;8.288;2022-08-14T05:20:26;10.83;;;9.90;;
9160;SDS011;4615;51.340;8.288;2022-08-14T05:22:54;11.33;;;10.17;;
9160;SDS011;4615;51.340;8.288;2022-08-14T05:25:21;11.10;;;9.97;;
9160;SDS011;4615;51.340;8.288;2022-08-14T05:27:48;10.93;;;10.03;;
9160;SDS011;4615;51.340;8.288;2022-08-14T05:30:14;10.57;;;9.67;;
9160;SDS011;4615;51.340;8.288;2022-08-14T05:32:44;11.30;;;10.27;;
9160;SDS011;4615;51.340;8.288;2022-08-14T05:35:10;11.90;;;10.90;;
9160;SDS011;4615;51.340;8.288;2022-08-14T05:37:36;12.20;;;11.13;;
9160;SDS011;4615;51.340;8.288;2022-08-14T05:40:06;11.10;;;10.03;;
9160;SDS011;4615;51.340;8.288;2022-08-14T05:42:35;10.93;;;9.93;;
9160;SDS011;4615;51.340;8.288;2022-08-14T05:45:02;10.90;;;9.90;;
9160;SDS011;4615;51.340;8.288;2022-08-14T05:47:29;10.70;;;9.80;;
9160;SDS011;4615;51.340;8.288;2022-08-14T05:49:55;12.27;;;10.93;;
9160;SDS011;4615;51.340;8.288;2022-08-14T05:52:22;11.53;;;10.53;;
9160;SDS011;4615;51.340;8.288;2022-08-14T05:54:48;11.67;;;10.43;;
9160;SDS011;4615;51.340;8.288;2022-08-14T05:57:16;12.27;;;11.27;;
9160;SDS011;4615;51.340;8.288;2022-08-14T05:59:42;12.20;;;11.20;;
9160;SDS011;4615;51.340;8.288;2022-08-14T06:02:09;12.73;;;11.63;;
9160;SDS011;4615;51.340;8.288;2022-08-14T06:04:35;13.13;;;11.47;;
9160;SDS011;4615;51.340;8.288;2022-08-14T06:07:02;12.27;;;11.10;;
9160;SDS011;4615;51.340;8.288;2022-08-14T06:09:28;11.40;;;10.30;;
9160;SDS011;4615;51.340;8.288;2022-08-14T06:11:54;11.90;;;10.77;;
9160;SDS011;4615;51.340;8.288;2022-08-14T06:14:22;13.23;;;11.97;;
9160;SDS011;4615;51.340;8.288;2022-08-14T06:16:49;12.97;;;11.77;;
9160;SDS011;4615;51.340;8.288;2022-08-14T06:19:15;11.70;;;10.63;;
9160;SDS011;4615;51.340;8.288;2022-08-14T06:21:42;11.33;;;10.23;;
9160;SDS011;4615;51.340;8.288;2022-08-14T06:24:08;10.67;;;9.77;;
9160;SDS011;4615;51.340;8.288;2022-08-14T06:26:35;11.60;;;10.50;;
9160;SDS011;4615;51.340;8.288;2022-08-14T06:29:01;11.30;;;10.30;;
9160;SDS011;4615;51.340;8.288;2022-08-14T06:31:29;11.13;;;10.13;;
9160;SDS011;4615;51.340;8.288;2022-08-14T06:33:56;11.40;;;10.30;;
9160;SDS011;4615;51.340;8.288;2022-08-14T06:36:22;12.00;;;11.00;;
9160;SDS011;4615;51.340;8.288;2022-08-14T06:38:49;11.23;;;10.33;;
9160;SDS011;4615;51.340;8.288;2022-08-14T06:41:16;11.53;;;10.57;;
9160;SDS011;4615;51.340;8.288;2022-08-14T06:43:43;10.67;;;9.77;;
9160;SDS011;4615;51.340;8.288;2022-08-14T06:46:09;10.63;;;9.73;;
9160;SDS011;4615;51.340;8.288;2022-08-14T06:48:37;9.80;;;8.80;;
9160;SDS011;4615;51.340;8.288;2022-08-14T06:51:03;10.47;;;9.57;;
9160;SDS011;4615;51.340;8.288;2022-08-14T06:53:30;10.70;;;9.70;;
9160;SDS011;4615;51.340;8.288;2022-08-14T06:55:56;11.33;;;9.17;;
9160;SDS011;4615;51.340;8.288;2022-08-14T06:58:23;9.73;;;9.03;;
9160;SDS011;4615;51.340;8.288;2022-08-14T07:00:49;10.40;;;9.40;;
9160;SDS011;4615;51.340;8.288;2022-08-14T07:03:33;9.93;;;9.03;;
9160;SDS011;4615;51.340;8.288;2022-08-14T07:06:18;9.87;;;9.07;;
9160;SDS011;4615;51.340;8.288;2022-08-14T07:08:45;9.90;;;8.93;;
9160;SDS011;4615;51.340;8.288;2022-08-14T07:11:11;10.00;;;9.10;;
9160;SDS011;4615;51.340;8.288;2022-08-14T07:13:38;9.93;;;9.10;;
9160;SDS011;4615;51.340;8.288;2022-08-14T07:16:04;10.63;;;9.10;;
9160;SDS011;4615;51.340;8.288;2022-08-14T07:18:32;9.50;;;8.70;;
9160;SDS011;4615;51.340;8.288;2022-08-14T07:20:59;8.87;;;8.17;;
9160;SDS011;4615;51.340;8.288;2022-08-14T07:23:27;8.60;;;7.90;;
9160;SDS011;4615;51.340;8.288;2022-08-14T07:25:55;9.15;;;8.35;;
9160;SDS011;4615;51.340;8.288;2022-08-14T07:28:23;8.60;;;7.80;;
9160;SDS011;4615;51.340;8.288;2022-08-14T07:30:50;8.65;;;7.85;;
9160;SDS011;4615;51.340;8.288;2022-08-14T07:33:20;7.60;;;7.00;;
9160;SDS011;4615;51.340;8.288;2022-08-14T07:35:46;7.63;;;6.93;;
9160;SDS011;4615;51.340;8.288;2022-08-14T07:38:15;7.32;;;6.72;;
9160;SDS011;4615;51.340;8.288;2022-08-14T07:40:44;6.72;;;6.22;;
9160;SDS011;4615;51.340;8.288;2022-08-14T07:43:10;7.03;;;6.43;;
9160;SDS011;4615;51.340;8.288;2022-08-14T07:45:37;7.43;;;6.70;;
9160;SDS011;4615;51.340;8.288;2022-08-14T07:48:04;7.03;;;6.50;;
9160;SDS011;4615;51.340;8.288;2022-08-14T07:50:31;6.93;;;6.35;;
9160;SDS011;4615;51.340;8.288;2022-08-14T07:52:58;6.75;;;6.25;;
9160;SDS011;4615;51.340;8.288;2022-08-14T07:55:25;7.10;;;6.50;;
9160;SDS011;4615;51.340;8.288;2022-08-14T07:57:53;6.68;;;6.18;;
9160;SDS011;4615;51.340;8.288;2022-08-14T08:00:21;7.22;;;6.57;;
9160;SDS011;4615;51.340;8.288;2022-08-14T08:02:48;9.43;;;6.55;;
9160;SDS011;4615;51.340;8.288;2022-08-14T08:05:16;7.25;;;6.63;;
9160;SDS011;4615;51.340;8.288;2022-08-14T08:07:43;6.72;;;6.22;;
9160;SDS011;4615;51.340;8.288;2022-08-14T08:10:10;7.05;;;6.28;;
9160;SDS011;4615;51.340;8.288;2022-08-14T08:12:56;6.88;;;6.38;;
9160;SDS011;4615;51.340;8.288;2022-08-14T08:15:23;6.43;;;5.88;;
9160;SDS011;4615;51.340;8.288;2022-08-14T08:17:50;6.20;;;5.70;;
9160;SDS011;4615;51.340;8.288;2022-08-14T08:20:17;6.28;;;5.80;;
9160;SDS011;4615;51.340;8.288;2022-08-14T08:22:44;5.95;;;5.40;;
9160;SDS011;4615;51.340;8.288;2022-08-14T08:25:11;8.32;;;5.88;;
9160;SDS011;4615;51.340;8.288;2022-08-14T08:27:37;6.43;;;5.93;;
9160;SDS011;4615;51.340;8.288;2022-08-14T08:30:07;6.65;;;6.10;;
9160;SDS011;4615;51.340;8.288;2022-08-14T08:32:37;6.28;;;5.75;;
9160;SDS011;4615;51.340;8.288;2022-08-14T08:35:03;6.35;;;5.85;;
9160;SDS011;4615;51.340;8.288;2022-08-14T08:37:33;5.82;;;5.38;;
9160;SDS011;4615;51.340;8.288;2022-08-14T08:40:00;6.38;;;5.78;;
9160;SDS011;4615;51.340;8.288;2022-08-14T08:42:27;5.70;;;5.28;;
9160;SDS011;4615;51.340;8.288;2022-08-14T08:44:53;5.70;;;5.20;;
9160;SDS011;4615;51.340;8.288;2022-08-14T08:47:21;5.30;;;4.90;;
9160;SDS011;4615;51.340;8.288;2022-08-14T08:49:47;5.40;;;4.97;;
9160;SDS011;4615;51.340;8.288;2022-08-14T08:52:14;5.70;;;5.20;;
9160;SDS011;4615;51.340;8.288;2022-08-14T08:54:40;4.93;;;4.63;;
9160;SDS011;4615;51.340;8.288;2022-08-14T08:57:17;5.57;;;4.75;;
9160;SDS011;4615;51.340;8.288;2022-08-14T08:59:44;5.28;;;4.60;;
9160;SDS011;4615;51.340;8.288;2022-08-14T09:02:10;4.85;;;4.28;;
9160;SDS011;4615;51.340;8.288;2022-08-14T09:04:38;5.03;;;4.63;;
9160;SDS011;4615;51.340;8.288;2022-08-14T09:07:05;5.05;;;4.65;;
9160;SDS011;4615;51.340;8.288;2022-08-14T09:09:32;4.78;;;4.47;;
9160;SDS011;4615;51.340;8.288;2022-08-14T09:11:59;4.50;;;4.18;;
9160;SDS011;4615;51.340;8.288;2022-08-14T09:14:26;5.20;;;4.70;;
9160;SDS011;4615;51.340;8.288;2022-08-14T09:16:54;4.57;;;4.28;;
9160;SDS011;4615;51.340;8.288;2022-08-14T09:19:20;4.90;;;4.50;;
9160;SDS011;4615;51.340;8.288;2022-08-14T09:21:48;6.00;;;4.25;;
9160;SDS011;4615;51.340;8.288;2022-08-14T09:24:14;4.85;;;4.45;;
9160;SDS011;4615;51.340;8.288;2022-08-14T09:26:42;5.15;;;4.65;;
9160;SDS011;4615;51.340;8.288;2022-08-14T09:29:09;4.55;;;4.00;;
9160;SDS011;4615;51.340;8.288;2022-08-14T09:31:37;5.70;;;5.20;;
9160;SDS011;4615;51.340;8.288;2022-08-14T09:34:10;4.90;;;4.50;;
9160;SDS011;4615;51.340;8.288;2022-08-14T09:36:42;4.70;;;4.20;;
9160;SDS011;4615;51.340;8.288;2022-08-14T09:39:18;4.93;;;4.53;;
9160;SDS011;4615;51.340;8.288;2022-08-14T09:41:50;4.47;;;4.18;;
9160;SDS011;4615;51.340;8.288;2022-08-14T09:44:27;5.10;;;4.70;;
9160;SDS011;4615;51.340;8.288;2022-08-14T09:46:55;5.00;;;4.50;;
9160;SDS011;4615;51.340;8.288;2022-08-14T09:49:28;5.45;;;4.65;;
9160;SDS011;4615;51.340;8.288;2022-08-14T09:52:01;4.40;;;4.10;;
9160;SDS011;4615;51.340;8.288;2022-08-14T09:54:35;4.82;;;4.43;;
9160;SDS011;4615;51.340;8.288;2022-08-14T09:57:03;5.72;;;5.18;;
9160;SDS011;4615;51.340;8.288;2022-08-14T09:59:38;5.10;;;4.60;;
9160;SDS011;4615;51.340;8.288;2022-08-14T10:02:16;4.35;;;4.05;;
9160;SDS011;4615;51.340;8.288;2022-08-14T10:04:42;4.45;;;4.10;;
9160;SDS011;4615;51.340;8.288;2022-08-14T10:07:09;5.13;;;4.75;;
9160;SDS011;4615;51.340;8.288;2022-08-14T10:09:46;4.60;;;4.28;;
9160;SDS011;4615;51.340;8.288;2022-08-14T10:12:13;4.30;;;4.00;;
9160;SDS011;4615;51.340;8.288;2022-08-14T10:14:39;4.53;;;4.13;;
9160;SDS011;4615;51.340;8.288;2022-08-14T10:17:06;4.63;;;4.22;;
9160;SDS011;4615;51.340;8.288;2022-08-14T10:19:32;4.70;;;4.28;;
9160;SDS011;4615;51.340;8.288;2022-08-14T10:22:00;4.63;;;4.20;;
9160;SDS011;4615;51.340;8.288;2022-08-14T10:24:28;4.90;;;4.55;;
9160;SDS011;4615;51.340;8.288;2022-08-14T10:26:57;4.70;;;4.38;;
9160;SDS011;4615;51.340;8.288;2022-08-14T10:29:31;5.43;;;4.95;;
9160;SDS011;4615;51.340;8.288;2022-08-14T10:31:57;5.07;;;4.60;;
9160;SDS011;4615;51.340;8.288;2022-08-14T10:34:29;5.30;;;4.90;;
9160;SDS011;4615;51.340;8.288;2022-08-14T10:37:00;6.20;;;5.70;;
9160;SDS011;4615;51.340;8.288;2022-08-14T10:39:28;5.35;;;4.95;;
9160;SDS011;4615;51.340;8.288;2022-08-14T10:42:00;5.22;;;4.72;;
9160;SDS011;4615;51.340;8.288;2022-08-14T10:44:31;5.68;;;5.28;;
9160;SDS011;4615;51.340;8.288;2022-08-14T10:46:59;5.80;;;5.30;;
9160;SDS011;4615;51.340;8.288;2022-08-14T10:49:32;5.05;;;4.50;;
9160;SDS011;4615;51.340;8.288;2022-08-14T10:52:00;4.82;;;4.43;;
9160;SDS011;4615;51.340;8.288;2022-08-14T10:54:37;4.93;;;4.53;;
9160;SDS011;4615;51.340;8.288;2022-08-14T10:57:15;6.25;;;4.80;;
9160;SDS011;4615;51.340;8.288;2022-08-14T10:59:46;5.35;;;4.95;;
9160;SDS011;4615;51.340;8.288;2022-08-14T11:02:17;5.30;;;4.85;;
9160;SDS011;4615;51.340;8.288;2022-08-14T11:04:44;5.20;;;4.80;;
9160;SDS011;4615;51.340;8.288;2022-08-14T11:07:12;5.25;;;4.85;;
9160;SDS011;4615;51.340;8.288;2022-08-14T11:09:39;5.47;;;4.97;;
9160;SDS011;4615;51.340;8.288;2022-08-14T11:12:05;5.47;;;4.97;;
9160;SDS011;4615;51.340;8.288;2022-08-14T11:14:33;5.00;;;4.60;;
9160;SDS011;4615;51.340;8.288;2022-08-14T11:17:00;5.13;;;4.70;;
9160;SDS011;4615;51.340;8.288;2022-08-14T11:19:27;5.07;;;4.68;;
9160;SDS011;4615;51.340;8.288;2022-08-14T11:21:53;5.38;;;4.88;;
9160;SDS011;4615;51.340;8.288;2022-08-14T11:24:20;5.28;;;4.80;;
9160;SDS011;4615;51.340;8.288;2022-08-14T11:26:47;4.97;;;4.57;;
9160;SDS011;4615;51.340;8.288;2022-08-14T11:29:14;4.72;;;4.43;;
9160;SDS011;4615;51.340;8.288;2022-08-14T11:31:42;5.40;;;4.90;;
9160;SDS011;4615;51.340;8.288;2022-08-14T11:34:08;5.10;;;4.60;;
9160;SDS011;4615;51.340;8.288;2022-08-14T11:36:36;4.97;;;4.55;;
9160;SDS011;4615;51.340;8.288;2022-08-14T11:39:02;4.60;;;4.20;;
9160;SDS011;4615;51.340;8.288;2022-08-14T11:41:29;5.05;;;4.65;;
9160;SDS011;4615;51.340;8.288;2022-08-14T11:43:59;4.75;;;4.35;;
9160;SDS011;4615;51.340;8.288;2022-08-14T11:46:25;4.88;;;4.35;;
9160;SDS011;4615;51.340;8.288;2022-08-14T11:48:54;5.10;;;4.65;;
9160;SDS011;4615;51.340;8.288;2022-08-14T11:51:22;4.53;;;4.22;;
9160;SDS011;4615;51.340;8.288;2022-08-14T11:53:51;4.50;;;4.20;;
9160;SDS011;4615;51.340;8.288;2022-08-14T11:56:18;4.28;;;3.88;;
9160;SDS011;4615;51.340;8.288;2022-08-14T11:58:48;4.38;;;4.00;;
9160;SDS011;4615;51.340;8.288;2022-08-14T12:01:15;4.63;;;4.25;;
9160;SDS011;4615;51.340;8.288;2022-08-14T12:03:42;4.28;;;3.97;;
9160;SDS011;4615;51.340;8.288;2022-08-14T12:06:12;4.43;;;4.00;;
9160;SDS011;4615;51.340;8.288;2022-08-14T12:08:39;4.35;;;3.95;;
9160;SDS011;4615;51.340;8.288;2022-08-14T12:11:06;4.75;;;4.40;;
9160;SDS011;4615;51.340;8.288;2022-08-14T12:13:33;5.03;;;4.63;;
9160;SDS011;4615;51.340;8.288;2022-08-14T12:16:01;4.75;;;4.45;;
9160;SDS011;4615;51.340;8.288;2022-08-14T12:18:28;4.30;;;4.00;;
9160;SDS011;4615;51.340;8.288;2022-08-14T12:20:56;4.40;;;4.00;;
9160;SDS011;4615;51.340;8.288;2022-08-14T12:23:24;4.65;;;4.25;;
9160;SDS011;4615;51.340;8.288;2022-08-14T12:26:00;5.30;;;4.88;;
9160;SDS011;4615;51.340;8.288;2022-08-14T12:28:27;4.28;;;3.88;;
9160;SDS011;4615;51.340;8.288;2022-08-14T12:30:53;5.07;;;4.68;;
9160;SDS011;4615;51.340;8.288;2022-08-14T12:33:20;4.15;;;3.85;;
9160;SDS011;4615;51.340;8.288;2022-08-14T12:35:49;4.47;;;4.07;;
9160;SDS011;4615;51.340;8.288;2022-08-14T12:38:16;4.20;;;3.90;;
9160;SDS011;4615;51.340;8.288;2022-08-14T12:40:47;4.22;;;3.92;;
9160;SDS011;4615;51.340;8.288;2022-08-14T12:43:14;4.88;;;4.50;;
9160;SDS011;4615;51.340;8.288;2022-08-14T12:45:44;4.35;;;4.05;;
9160;SDS011;4615;51.340;8.288;2022-08-14T12:48:13;4.75;;;4.22;;
9160;SDS011;4615;51.340;8.288;2022-08-14T12:50:40;4.13;;;3.83;;
9160;SDS011;4615;51.340;8.288;2022-08-14T12:53:07;4.80;;;4.40;;
9160;SDS011;4615;51.340;8.288;2022-08-14T12:55:33;4.30;;;4.00;;
9160;SDS011;4615;51.340;8.288;2022-08-14T12:58:02;4.82;;;4.18;;
9160;SDS011;4615;51.340;8.288;2022-08-14T13:00:30;4.43;;;4.13;;
9160;SDS011;4615;51.340;8.288;2022-08-14T13:02:56;4.07;;;3.78;;
9160;SDS011;4615;51.340;8.288;2022-08-14T13:05:23;3.85;;;3.55;;
9160;SDS011;4615;51.340;8.288;2022-08-14T13:07:51;4.28;;;3.97;;
9160;SDS011;4615;51.340;8.288;2022-08-14T13:10:18;4.10;;;3.80;;
9160;SDS011;4615;51.340;8.288;2022-08-14T13:12:45;4.13;;;3.65;;
9160;SDS011;4615;51.340;8.288;2022-08-14T13:15:13;4.40;;;4.07;;
9160;SDS011;4615;51.340;8.288;2022-08-14T13:17:42;4.28;;;3.97;;
9160;SDS011;4615;51.340;8.288;2022-08-14T13:20:09;4.22;;;3.90;;
9160;SDS011;4615;51.340;8.288;2022-08-14T13:22:36;4.25;;;3.95;;
9160;SDS011;4615;51.340;8.288;2022-08-14T13:25:04;4.28;;;3.88;;
9160;SDS011;4615;51.340;8.288;2022-08-14T13:27:30;5.03;;;4.63;;
9160;SDS011;4615;51.340;8.288;2022-08-14T13:29:58;4.30;;;4.00;;
9160;SDS011;4615;51.340;8.288;2022-08-14T13:32:29;4.22;;;3.92;;
9160;SDS011;4615;51.340;8.288;2022-08-14T13:34:57;4.28;;;3.95;;
9160;SDS011;4615;51.340;8.288;2022-08-14T13:37:24;3.72;;;3.50;;
9160;SDS011;4615;51.340;8.288;2022-08-14T13:39:51;4.30;;;3.90;;
9160;SDS011;4615;51.340;8.288;2022-08-14T13:42:18;3.92;;;3.60;;
9160;SDS011;4615;51.340;8.288;2022-08-14T13:44:46;4.15;;;3.83;;
9160;SDS011;4615;51.340;8.288;2022-08-14T13:47:14;4.38;;;4.07;;
9160;SDS011;4615;51.340;8.288;2022-08-14T13:49:45;5.10;;;4.15;;
9160;SDS011;4615;51.340;8.288;2022-08-14T13:52:12;3.95;;;3.40;;
9160;SDS011;4615;51.340;8.288;2022-08-14T13:54:41;4.18;;;3.88;;
9160;SDS011;4615;51.340;8.288;2022-08-14T13:57:10;4.22;;;3.92;;
9160;SDS011;4615;51.340;8.288;2022-08-14T13:59:36;4.25;;;3.92;;
9160;SDS011;4615;51.340;8.288;2022-08-14T14:02:05;4.20;;;3.80;;
9160;SDS011;4615;51.340;8.288;2022-08-14T14:04:32;4.15;;;3.80;;
9160;SDS011;4615;51.340;8.288;2022-08-14T14:07:04;4.57;;;4.15;;
9160;SDS011;4615;51.340;8.288;2022-08-14T14:09:35;4.30;;;4.00;;
9160;SDS011;4615;51.340;8.288;2022-08-14T14:12:03;4.07;;;3.78;;
9160;SDS011;4615;51.340;8.288;2022-08-14T14:14:32;5.10;;;3.60;;
9160;SDS011;4615;51.340;8.288;2022-08-14T14:16:58;4.85;;;3.92;;
9160;SDS011;4615;51.340;8.288;2022-08-14T14:19:25;3.90;;;3.60;;
9160;SDS011;4615;51.340;8.288;2022-08-14T14:21:52;4.60;;;3.88;;
9160;SDS011;4615;51.340;8.288;2022-08-14T14:24:21;4.00;;;3.70;;
9160;SDS011;4615;51.340;8.288;2022-08-14T14:26:47;3.92;;;3.33;;
9160;SDS011;4615;51.340;8.288;2022-08-14T14:29:14;3.88;;;3.67;;
9160;SDS011;4615;51.340;8.288;2022-08-14T14:31:43;4.20;;;3.90;;
9160;SDS011;4615;51.340;8.288;2022-08-14T14:34:12;4.00;;;3.60;;
9160;SDS011;4615;51.340;8.288;2022-08-14T14:36:42;3.70;;;3.40;;
9160;SDS011;4615;51.340;8.288;2022-08-14T14:39:09;4.25;;;3.85;;
9160;SDS011;4615;51.340;8.288;2022-08-14T14:41:38;3.95;;;3.45;;
9160;SDS011;4615;51.340;8.288;2022-08-14T14:44:05;3.92;;;3.63;;
9160;SDS011;4615;51.340;8.288;2022-08-14T14:46:32;4.00;;;3.70;;
9160;SDS011;4615;51.340;8.288;2022-08-14T14:49:01;7.25;;;3.90;;
9160;SDS011;4615;51.340;8.288;2022-08-14T14:51:27;5.45;;;3.92;;
9160;SDS011;4615;51.340;8.288;2022-08-14T14:53:54;4.20;;;3.90;;
9160;SDS011;4615;51.340;8.288;2022-08-14T14:56:21;4.20;;;3.80;;
9160;SDS011;4615;51.340;8.288;2022-08-14T14:58:50;4.70;;;4.10;;
9160;SDS011;4615;51.340;8.288;2022-08-14T15:01:17;3.60;;;3.40;;
9160;SDS011;4615;51.340;8.288;2022-08-14T15:03:48;3.83;;;3.42;;
9160;SDS011;4615;51.340;8.288;2022-08-14T15:06:18;4.07;;;3.70;;
9160;SDS011;4615;51.340;8.288;2022-08-14T15:08:44;3.97;;;3.67;;
9160;SDS011;4615;51.340;8.288;2022-08-14T15:11:11;4.18;;;3.78;;
9160;SDS011;4615;51.340;8.288;2022-08-14T15:13:37;3.95;;;3.75;;
9160;SDS011;4615;51.340;8.288;2022-08-14T15:16:06;4.30;;;4.00;;